createdAt,value
2018-05-31T20:41:42.792Z,56.80
2018-05-31T20:42:16.028Z,56.80
2018-05-31T20:42:49.056Z,56.80
2018-05-31T20:43:21.600Z,56.60
2018-05-31T20:43:54.235Z,56.50
2018-05-31T20:44:26.793Z,56.50
2018-05-31T20:44:59.460Z,56.50
2018-05-31T20:45:31.993Z,56.60
2018-05-31T20:46:04.754Z,56.70
2018-05-31T20:46:39.480Z,56.90
2018-05-31T20:47:14.128Z,57.00
2018-05-31T20:47:50.001Z,57.30
2018-05-31T20:48:24.674Z,57.70
2018-05-31T20:48:59.682Z,58.20
2018-05-31T20:49:36.762Z,57.60
2018-05-31T20:50:12.511Z,57.50
2018-05-31T20:50:48.106Z,57.60
2018-05-31T20:51:20.639Z,58.40
2018-05-31T20:51:53.313Z,58.40
2018-05-31T20:52:27.630Z,57.90
2018-05-31T20:53:02.572Z,57.80
2018-05-31T20:53:37.894Z,58.20
2018-05-31T20:54:13.454Z,58.50
2018-05-31T20:54:49.349Z,58.60
2018-05-31T20:55:25.020Z,58.70
2018-05-31T20:56:00.545Z,58.80
2018-05-31T20:56:33.092Z,58.50
2018-05-31T20:57:08.681Z,57.80
2018-05-31T20:57:44.765Z,57.80
2018-05-31T20:58:21.616Z,58.30
2018-05-31T20:58:57.122Z,58.90
2018-05-31T20:59:36.729Z,59.00
2018-05-31T21:00:13.326Z,58.80
2018-05-31T21:00:49.865Z,58.50
2018-05-31T21:01:22.470Z,58.80
2018-05-31T21:01:56.363Z,58.10
2018-05-31T21:02:29.758Z,58.10
2018-05-31T21:03:03.552Z,58.00
2018-05-31T21:03:39.331Z,57.80
2018-05-31T21:04:15.259Z,57.40
2018-05-31T21:04:52.627Z,57.10
2018-05-31T21:05:27.296Z,57.10
2018-05-31T21:06:03.863Z,57.00
2018-05-31T21:06:36.391Z,57.20
2018-05-31T21:07:13.227Z,57.20
2018-05-31T21:07:45.785Z,57.40
2018-05-31T21:08:18.424Z,57.60
2018-05-31T21:08:54.077Z,57.80
2018-05-31T21:09:30.237Z,56.50
2018-05-31T21:10:04.793Z,56.20
2018-05-31T21:10:41.762Z,56.40
2018-05-31T21:11:17.580Z,56.40
2018-05-31T21:11:53.669Z,57.00
2018-05-31T21:12:26.436Z,56.90
2018-05-31T21:12:59.194Z,57.00
2018-05-31T21:13:32.450Z,57.50
2018-05-31T21:14:07.665Z,57.50
2018-05-31T21:14:42.911Z,57.50
2018-05-31T21:15:19.699Z,57.50
2018-05-31T21:15:55.096Z,57.50
2018-05-31T21:16:31.283Z,57.90
2018-05-31T21:17:03.892Z,57.90
2018-05-31T21:17:36.469Z,58.00
2018-05-31T21:18:10.416Z,57.80
2018-05-31T21:18:42.959Z,57.80
2018-05-31T21:19:18.662Z,57.80
2018-05-31T21:19:54.998Z,57.70
2018-05-31T21:20:30.813Z,57.40
2018-05-31T21:21:05.406Z,57.30
2018-05-31T21:21:41.384Z,57.50
2018-05-31T21:22:15.650Z,57.10
2018-05-31T21:22:50.975Z,57.30
2018-05-31T21:23:23.674Z,57.20
2018-05-31T21:23:57.427Z,57.30
2018-05-31T21:24:33.099Z,57.20
2018-05-31T21:25:11.034Z,57.00
2018-05-31T21:25:46.896Z,56.90
2018-05-31T21:26:26.823Z,56.30
2018-05-31T21:27:04.430Z,55.90
2018-05-31T21:27:38.299Z,55.90
2018-05-31T21:28:13.064Z,55.90
2018-05-31T21:28:48.550Z,55.90
2018-05-31T21:29:22.725Z,55.90
2018-05-31T21:29:59.622Z,56.10
2018-05-31T21:30:35.977Z,56.30
2018-05-31T21:31:14.797Z,56.30
2018-05-31T21:31:57.059Z,56.40
2018-05-31T21:32:32.458Z,56.50
2018-05-31T21:33:08.973Z,56.60
2018-05-31T21:33:46.281Z,56.60
2018-05-31T21:34:22.250Z,56.80
2018-05-31T21:34:55.683Z,57.00
2018-05-31T21:35:31.356Z,56.80
2018-05-31T21:36:07.284Z,57.20
2018-05-31T21:36:42.959Z,57.20
2018-05-31T21:37:18.810Z,57.20
2018-05-31T21:37:54.003Z,57.20
2018-05-31T21:38:30.126Z,57.20
2018-05-31T21:39:08.499Z,57.20
2018-05-31T21:39:45.019Z,57.10
2018-05-31T21:40:19.520Z,57.20
2018-05-31T21:40:52.967Z,57.50
2018-05-31T21:41:28.762Z,57.40
2018-05-31T21:42:08.690Z,57.50
2018-05-31T21:42:43.301Z,57.50
2018-05-31T21:43:19.595Z,57.50
2018-05-31T21:43:55.687Z,57.50
2018-05-31T21:44:33.670Z,57.50
2018-05-31T21:45:08.877Z,57.50
2018-05-31T21:45:43.486Z,57.50
2018-05-31T21:46:19.717Z,57.40
2018-05-31T21:46:52.784Z,57.50
2018-05-31T21:47:28.147Z,57.50
2018-05-31T21:48:01.493Z,57.40
2018-05-31T21:48:35.265Z,57.40
2018-05-31T21:49:08.405Z,57.30
2018-05-31T21:49:43.370Z,57.30
2018-05-31T21:50:19.891Z,57.30
2018-05-31T21:50:56.796Z,57.20
2018-05-31T21:51:32.251Z,57.40
2018-05-31T21:52:07.901Z,57.50
2018-05-31T21:52:40.602Z,57.50
2018-05-31T21:53:13.350Z,57.50
2018-05-31T21:53:47.591Z,57.60
2018-05-31T21:54:20.549Z,57.50
2018-05-31T21:54:54.559Z,57.20
2018-05-31T21:55:27.636Z,57.30
2018-05-31T21:56:02.958Z,57.30
2018-05-31T21:56:35.505Z,57.50
2018-05-31T21:57:08.672Z,57.60
2018-05-31T21:57:42.759Z,57.60
2018-05-31T21:58:16.165Z,57.60
2018-05-31T21:58:48.829Z,57.60
2018-05-31T21:59:22.369Z,57.60
2018-05-31T21:59:55.090Z,57.70
2018-05-31T22:00:31.089Z,57.90
2018-05-31T22:01:04.515Z,57.90
2018-05-31T22:01:37.063Z,57.90
2018-05-31T22:02:09.688Z,58.00
2018-05-31T22:02:42.321Z,58.00
2018-05-31T22:03:15.074Z,57.90
2018-05-31T22:03:47.892Z,57.80
2018-05-31T22:04:20.497Z,58.50
2018-05-31T22:04:53.096Z,58.60
2018-05-31T22:05:25.640Z,58.10
2018-05-31T22:05:58.290Z,58.10
2018-05-31T22:06:30.875Z,58.10
2018-05-31T22:07:03.685Z,58.10
2018-05-31T22:07:36.392Z,58.30
2018-05-31T22:08:08.969Z,58.50
2018-05-31T22:08:42.845Z,58.60
2018-05-31T22:09:15.433Z,58.90
2018-05-31T22:09:47.993Z,59.50
2018-05-31T22:10:20.577Z,60.90
2018-05-31T22:10:53.421Z,61.70
2018-05-31T22:11:26.014Z,62.30
2018-05-31T22:11:58.569Z,61.80
2018-05-31T22:12:32.135Z,61.60
2018-05-31T22:13:05.843Z,61.40
2018-05-31T22:13:38.617Z,60.50
2018-05-31T22:14:12.408Z,60.30
2018-05-31T22:14:45.041Z,60.70
2018-05-31T22:15:17.675Z,59.80
2018-05-31T22:15:51.215Z,60.00
2018-05-31T22:16:23.981Z,60.60
2018-05-31T22:16:56.598Z,61.00
2018-05-31T22:17:29.966Z,61.40
2018-05-31T22:18:02.562Z,61.40
2018-05-31T22:18:37.266Z,61.10
2018-05-31T22:19:09.798Z,60.30
2018-05-31T22:19:42.468Z,60.10
2018-05-31T22:20:15.034Z,60.10
2018-05-31T22:20:47.671Z,60.80
2018-05-31T22:21:20.221Z,60.90
2018-05-31T22:21:52.827Z,60.70
2018-05-31T22:22:25.454Z,61.00
2018-05-31T22:22:58.061Z,61.00
2018-05-31T22:23:30.684Z,60.40
2018-05-31T22:24:04.344Z,59.70
2018-05-31T22:24:37.057Z,59.50
2018-05-31T22:25:10.470Z,59.50
2018-05-31T22:25:43.176Z,59.50
2018-05-31T22:26:16.620Z,60.00
2018-05-31T22:26:49.459Z,59.90
2018-05-31T22:27:22.057Z,60.40
2018-05-31T22:27:54.648Z,60.50
2018-05-31T22:28:28.069Z,59.50
2018-05-31T22:29:00.706Z,59.50
2018-05-31T22:29:34.123Z,59.30
2018-05-31T22:30:06.810Z,59.30
2018-05-31T22:30:39.461Z,59.40
2018-05-31T22:31:13.303Z,59.80
2018-05-31T22:31:45.876Z,59.90
2018-05-31T22:32:18.497Z,59.50
2018-05-31T22:32:51.097Z,59.90
2018-05-31T22:33:24.518Z,61.60
2018-05-31T22:33:57.216Z,60.80
2018-05-31T22:34:30.620Z,60.80
2018-05-31T22:35:04.958Z,59.70
2018-05-31T22:35:37.578Z,59.60
2018-05-31T22:36:10.162Z,59.40
2018-05-31T22:36:43.590Z,59.50
2018-05-31T22:37:16.199Z,59.50
2018-05-31T22:37:48.887Z,60.00
2018-05-31T22:38:22.206Z,60.80
2018-05-31T22:38:54.809Z,61.20
2018-05-31T22:39:27.388Z,60.90
2018-05-31T22:40:00.809Z,61.50
2018-05-31T22:40:33.601Z,61.40
2018-05-31T22:41:06.251Z,62.40
2018-05-31T22:41:38.812Z,61.80
2018-05-31T22:42:11.408Z,61.40
2018-05-31T22:42:43.973Z,61.40
2018-05-31T22:43:16.816Z,61.10
2018-05-31T22:43:49.515Z,60.90
2018-05-31T22:44:23.214Z,61.10
2018-05-31T22:44:56.555Z,61.00
2018-05-31T22:45:29.152Z,61.90
2018-05-31T22:46:01.857Z,62.60
2018-05-31T22:46:34.447Z,62.70
2018-05-31T22:47:07.664Z,62.80
2018-05-31T22:47:40.192Z,62.90
2018-05-31T22:48:12.909Z,62.70
2018-05-31T22:48:45.621Z,62.90
2018-05-31T22:49:18.197Z,63.70
2018-05-31T22:49:50.727Z,63.90
2018-05-31T22:50:24.100Z,63.00
2018-05-31T22:50:56.619Z,62.90
2018-05-31T22:51:29.257Z,63.00
2018-05-31T22:52:01.938Z,63.00
2018-05-31T22:52:34.489Z,63.00
2018-05-31T22:53:07.034Z,63.60
2018-05-31T22:53:40.473Z,63.60
2018-05-31T22:54:13.844Z,63.60
2018-05-31T22:54:46.470Z,63.70
2018-05-31T22:55:21.810Z,63.20
2018-05-31T22:55:54.401Z,63.70
2018-05-31T22:56:26.980Z,63.90
2018-05-31T22:56:59.557Z,64.00
2018-05-31T22:57:32.173Z,64.00
2018-05-31T22:58:04.741Z,64.70
2018-05-31T22:58:37.455Z,65.20
2018-05-31T22:59:10.011Z,65.30
2018-05-31T22:59:42.650Z,64.30
2018-05-31T23:00:17.359Z,63.70
2018-05-31T23:00:50.385Z,63.40
2018-05-31T23:01:23.000Z,63.20
2018-05-31T23:01:56.966Z,63.20
2018-05-31T23:02:30.340Z,63.00
2018-05-31T23:03:04.198Z,62.90
2018-05-31T23:03:36.732Z,63.00
2018-05-31T23:04:09.419Z,63.80
2018-05-31T23:04:42.096Z,63.10
2018-05-31T23:05:15.520Z,63.10
2018-05-31T23:05:48.128Z,63.10
2018-05-31T23:06:20.748Z,63.10
2018-05-31T23:06:53.572Z,63.40
2018-05-31T23:07:26.183Z,63.20
2018-05-31T23:07:58.726Z,62.80
2018-05-31T23:08:37.028Z,62.60
2018-05-31T23:09:09.671Z,62.60
2018-05-31T23:09:42.633Z,62.90
2018-05-31T23:10:17.801Z,63.60
2018-05-31T23:10:50.414Z,63.20
2018-05-31T23:11:22.951Z,63.30
2018-05-31T23:11:56.282Z,63.20
2018-05-31T23:12:28.845Z,63.20
2018-05-31T23:13:01.565Z,63.20
2018-05-31T23:13:34.173Z,63.10
2018-05-31T23:14:06.746Z,63.60
2018-05-31T23:14:39.436Z,65.20
2018-05-31T23:15:12.218Z,64.20
2018-05-31T23:15:44.815Z,64.20
2018-05-31T23:16:17.709Z,63.90
2018-05-31T23:16:50.314Z,64.50
2018-05-31T23:17:23.662Z,65.80
2018-05-31T23:17:56.233Z,64.90
2018-05-31T23:18:28.873Z,64.70
2018-05-31T23:19:01.568Z,64.10
2018-05-31T23:19:34.800Z,64.00
2018-05-31T23:20:07.394Z,64.20
2018-05-31T23:20:40.096Z,64.00
2018-05-31T23:21:13.195Z,63.70
2018-05-31T23:21:45.778Z,63.80
2018-05-31T23:22:18.388Z,63.90
2018-05-31T23:22:52.453Z,65.10
2018-05-31T23:23:25.879Z,65.00
2018-05-31T23:23:59.301Z,64.50
2018-05-31T23:24:31.850Z,64.50
2018-05-31T23:25:04.507Z,64.30
2018-05-31T23:25:37.353Z,64.40
2018-05-31T23:26:10.789Z,65.70
2018-05-31T23:26:43.409Z,65.60
2018-05-31T23:27:16.044Z,66.50
2018-05-31T23:27:48.749Z,67.30
2018-05-31T23:28:22.184Z,67.80
2018-05-31T23:28:54.833Z,67.70
2018-05-31T23:29:27.592Z,67.40
2018-05-31T23:30:00.244Z,67.00
2018-05-31T23:30:32.917Z,67.10
2018-05-31T23:31:05.532Z,66.70
2018-05-31T23:31:38.658Z,66.20
2018-05-31T23:32:11.267Z,66.10
2018-05-31T23:32:43.886Z,66.30
2018-05-31T23:33:17.283Z,66.40
2018-05-31T23:33:50.844Z,66.20
2018-05-31T23:34:24.165Z,66.10
2018-05-31T23:34:56.746Z,66.00
2018-05-31T23:35:29.354Z,65.80
2018-05-31T23:36:02.769Z,65.80
2018-05-31T23:36:35.406Z,65.80
2018-05-31T23:37:08.819Z,65.90
2018-05-31T23:37:41.372Z,65.90
2018-05-31T23:38:14.106Z,66.10
2018-05-31T23:38:47.585Z,66.10
2018-05-31T23:39:20.266Z,66.10
2018-05-31T23:39:53.597Z,66.70
2018-05-31T23:40:27.150Z,66.70
2018-05-31T23:41:00.495Z,67.20
2018-05-31T23:41:33.131Z,67.20
2018-05-31T23:42:05.744Z,67.00
2018-05-31T23:42:38.325Z,67.10
2018-05-31T23:43:11.668Z,66.60
2018-05-31T23:43:44.315Z,66.50
2018-05-31T23:44:17.099Z,66.30
2018-05-31T23:44:49.768Z,66.10
2018-05-31T23:45:22.466Z,66.20
2018-05-31T23:45:55.440Z,66.30
2018-05-31T23:46:28.795Z,66.70
2018-05-31T23:47:03.043Z,66.60
2018-05-31T23:47:35.632Z,66.50
2018-05-31T23:48:08.374Z,66.40
2018-05-31T23:48:42.062Z,66.50
2018-05-31T23:49:14.717Z,67.20
2018-05-31T23:49:48.170Z,67.00
2018-05-31T23:50:20.933Z,66.90
2018-05-31T23:50:53.538Z,66.50
2018-05-31T23:51:27.066Z,66.50
2018-05-31T23:51:59.707Z,66.50
2018-05-31T23:52:32.412Z,66.50
2018-05-31T23:53:04.961Z,66.40
2018-05-31T23:53:38.222Z,66.70
2018-05-31T23:54:10.780Z,67.30
2018-05-31T23:54:45.021Z,67.00
2018-05-31T23:55:18.488Z,66.90
2018-05-31T23:55:51.100Z,66.60
2018-05-31T23:56:23.783Z,67.00
2018-05-31T23:56:56.300Z,67.20
2018-05-31T23:57:28.821Z,67.00
2018-05-31T23:58:02.116Z,66.80
2018-05-31T23:58:34.637Z,66.80
2018-05-31T23:59:07.163Z,66.90
2018-05-31T23:59:39.688Z,66.90
